sensor_id;sensor_type;location;lat;lon;timestamp;pressure;altitude;pressure_sealevel;temperature;humidity
11198;BME280;5655;48.744;9.162;2022-10-16T00:01:15;96003.69;;;18.39;100.00
11198;BME280;5655;48.744;9.162;2022-10-16T00:03:42;96000.41;;;18.48;100.00
11198;BME280;5655;48.744;9.162;2022-10-16T00:06:08;96001.16;;;18.32;100.00
11198;BME280;5655;48.744;9.162;2022-10-16T00:08:34;95992.75;;;18.27;100.00
11198;BME280;5655;48.744;9.162;2022-10-16T00:11:05;95999.72;;;18.44;100.00
11198;BME280;5655;48.744;9.162;2022-10-16T00:13:32;95991.72;;;17.85;100.00
11198;BME280;5655;48.744;9.162;2022-10-16T00:15:59;95996.19;;;18.11;100.00
11198;BME280;5655;48.744;9.162;2022-10-16T00:18:25;95997.03;;;18.08;100.00
11198;BME280;5655;48.744;9.162;2022-10-16T00:20:51;95994.38;;;17.88;100.00
11198;BME280;5655;48.744;9.162;2022-10-16T00:23:17;95998.56;;;18.09;100.00
11198;BME280;5655;48.744;9.162;2022-10-16T00:25:42;96005.41;;;17.78;100.00
11198;BME280;5655;48.744;9.162;2022-10-16T00:28:07;96003.44;;;17.98;100.00
11198;BME280;5655;48.744;9.162;2022-10-16T00:30:33;96004.97;;;17.99;100.00
11198;BME280;5655;48.744;9.162;2022-10-16T00:32:58;96000.94;;;18.07;100.00
11198;BME280;5655;48.744;9.162;2022-10-16T00:35:23;95998.88;;;17.75;100.00
11198;BME280;5655;48.744;9.162;2022-10-16T00:37:49;96000.25;;;18.03;100.00
11198;BME280;5655;48.744;9.162;2022-10-16T00:40:14;95993.81;;;18.13;100.00
11198;BME280;5655;48.744;9.162;2022-10-16T00:42:40;96002.59;;;18.01;100.00
11198;BME280;5655;48.744;9.162;2022-10-16T00:45:06;96011.97;;;17.57;100.00
11198;BME280;5655;48.744;9.162;2022-10-16T00:47:43;96009.69;;;17.95;100.00
11198;BME280;5655;48.744;9.162;2022-10-16T00:50:31;96008.22;;;18.10;100.00
11198;BME280;5655;48.744;9.162;2022-10-16T00:52:58;95995.78;;;17.77;100.00
11198;BME280;5655;48.744;9.162;2022-10-16T00:55:26;95996.31;;;17.88;100.00
11198;BME280;5655;48.744;9.162;2022-10-16T00:57:53;95994.72;;;17.71;100.00
11198;BME280;5655;48.744;9.162;2022-10-16T01:00:22;96002.88;;;17.87;100.00
11198;BME280;5655;48.744;9.162;2022-10-16T01:05:55;96024.97;;;18.05;100.00
11198;BME280;5655;48.744;9.162;2022-10-16T01:08:38;96021.06;;;18.06;100.00
11198;BME280;5655;48.744;9.162;2022-10-16T01:11:31;96021.34;;;17.92;100.00
11198;BME280;5655;48.744;9.162;2022-10-16T01:14:01;96028.22;;;18.16;100.00
11198;BME280;5655;48.744;9.162;2022-10-16T01:16:38;96022.22;;;17.89;100.00
11198;BME280;5655;48.744;9.162;2022-10-16T01:21:52;96027.81;;;17.78;100.00
11198;BME280;5655;48.744;9.162;2022-10-16T01:24:31;96036.06;;;18.10;100.00
11198;BME280;5655;48.744;9.162;2022-10-16T01:27:11;96016.94;;;17.82;100.00
11198;BME280;5655;48.744;9.162;2022-10-16T01:34:50;96024.97;;;18.05;100.00
11198;BME280;5655;48.744;9.162;2022-10-16T01:37:29;96016.22;;;17.78;100.00
11198;BME280;5655;48.744;9.162;2022-10-16T01:39:58;96018.59;;;17.76;100.00
11198;BME280;5655;48.744;9.162;2022-10-16T01:42:30;96008.94;;;17.75;100.00
11198;BME280;5655;48.744;9.162;2022-10-16T01:45:00;96016.22;;;17.78;100.00
11198;BME280;5655;48.744;9.162;2022-10-16T01:47:27;96017.06;;;17.75;100.00
11198;BME280;5655;48.744;9.162;2022-10-16T01:49:56;96015.34;;;17.64;100.00
11198;BME280;5655;48.744;9.162;2022-10-16T01:52:26;96009.13;;;17.44;100.00
11198;BME280;5655;48.744;9.162;2022-10-16T01:54:55;96015.69;;;17.66;100.00
11198;BME280;5655;48.744;9.162;2022-10-16T01:57:24;96002.06;;;17.50;100.00
11198;BME280;5655;48.744;9.162;2022-10-16T01:59:54;96009.19;;;17.41;100.00
11198;BME280;5655;48.744;9.162;2022-10-16T02:02:22;96023.28;;;17.52;100.00
11198;BME280;5655;48.744;9.162;2022-10-16T02:04:58;96012.66;;;17.64;100.00
11198;BME280;5655;48.744;9.162;2022-10-16T02:07:26;96007.09;;;17.29;100.00
11198;BME280;5655;48.744;9.162;2022-10-16T02:09:52;96005.28;;;17.22;100.00
11198;BME280;5655;48.744;9.162;2022-10-16T02:12:26;96014.41;;;17.51;100.00
11198;BME280;5655;48.744;9.162;2022-10-16T02:14:53;96002.19;;;17.43;100.00
11198;BME280;5655;48.744;9.162;2022-10-16T02:17:19;96013.75;;;17.24;100.00
11198;BME280;5655;48.744;9.162;2022-10-16T02:19:47;96017.81;;;17.55;100.00
11198;BME280;5655;48.744;9.162;2022-10-16T02:22:26;96022.19;;;17.69;100.00
11198;BME280;5655;48.744;9.162;2022-10-16T02:25:03;96023.00;;;17.46;100.00
11198;BME280;5655;48.744;9.162;2022-10-16T02:27:36;96021.28;;;17.56;100.00
11198;BME280;5655;48.744;9.162;2022-10-16T02:32:46;96014.34;;;17.55;100.00
11198;BME280;5655;48.744;9.162;2022-10-16T02:35:13;96006.56;;;17.57;100.00
11198;BME280;5655;48.744;9.162;2022-10-16T02:37:40;95999.28;;;17.34;100.00
11198;BME280;5655;48.744;9.162;2022-10-16T02:40:06;96004.28;;;17.55;100.00
11198;BME280;5655;48.744;9.162;2022-10-16T02:42:37;95999.50;;;17.83;100.00
11198;BME280;5655;48.744;9.162;2022-10-16T02:45:04;96011.22;;;17.56;100.00
11198;BME280;5655;48.744;9.162;2022-10-16T02:47:30;96005.19;;;17.49;100.00
11198;BME280;5655;48.744;9.162;2022-10-16T02:49:55;96007.88;;;17.49;100.00
11198;BME280;5655;48.744;9.162;2022-10-16T02:52:20;96016.63;;;17.56;100.00
11198;BME280;5655;48.744;9.162;2022-10-16T02:54:46;96014.59;;;17.41;100.00
11198;BME280;5655;48.744;9.162;2022-10-16T02:57:11;96026.66;;;17.59;100.00
11198;BME280;5655;48.744;9.162;2022-10-16T02:59:37;96024.28;;;17.61;100.00
11198;BME280;5655;48.744;9.162;2022-10-16T03:02:02;96025.75;;;17.66;100.00
11198;BME280;5655;48.744;9.162;2022-10-16T03:04:28;96012.13;;;17.50;100.00
11198;BME280;5655;48.744;9.162;2022-10-16T03:06:53;96018.44;;;17.83;100.00
11198;BME280;5655;48.744;9.162;2022-10-16T03:09:18;96016.44;;;17.87;100.00
11198;BME280;5655;48.744;9.162;2022-10-16T03:11:44;96016.59;;;17.80;100.00
11198;BME280;5655;48.744;9.162;2022-10-16T03:14:09;96014.41;;;17.91;100.00
11198;BME280;5655;48.744;9.162;2022-10-16T03:16:34;96021.78;;;17.71;100.00
11198;BME280;5655;48.744;9.162;2022-10-16T03:18:59;96012.75;;;17.97;100.00
11198;BME280;5655;48.744;9.162;2022-10-16T03:21:25;96014.97;;;17.82;100.00
11198;BME280;5655;48.744;9.162;2022-10-16T03:23:50;96018.31;;;17.90;100.00
11198;BME280;5655;48.744;9.162;2022-10-16T03:26:15;96022.28;;;17.85;100.00
11198;BME280;5655;48.744;9.162;2022-10-16T03:28:41;96019.22;;;17.83;100.00
11198;BME280;5655;48.744;9.162;2022-10-16T03:31:06;96022.63;;;17.87;100.00
11198;BME280;5655;48.744;9.162;2022-10-16T03:33:31;96008.81;;;17.82;100.00
11198;BME280;5655;48.744;9.162;2022-10-16T03:35:57;96011.66;;;17.75;100.00
11198;BME280;5655;48.744;9.162;2022-10-16T03:38:22;96018.84;;;18.01;100.00
11198;BME280;5655;48.744;9.162;2022-10-16T03:40:47;96024.09;;;17.72;100.00
11198;BME280;5655;48.744;9.162;2022-10-16T03:43:13;96018.81;;;17.85;100.00
11198;BME280;5655;48.744;9.162;2022-10-16T03:45:38;96019.84;;;17.51;100.00
11198;BME280;5655;48.744;9.162;2022-10-16T03:48:05;96018.25;;;17.74;100.00
11198;BME280;5655;48.744;9.162;2022-10-16T03:50:30;96021.44;;;17.88;100.00
11198;BME280;5655;48.744;9.162;2022-10-16T03:52:55;96021.69;;;17.54;100.00
11198;BME280;5655;48.744;9.162;2022-10-16T03:55:21;96024.84;;;17.73;100.00
11198;BME280;5655;48.744;9.162;2022-10-16T03:57:46;96035.97;;;17.58;100.00
11198;BME280;5655;48.744;9.162;2022-10-16T04:00:12;96030.19;;;17.76;100.00
11198;BME280;5655;48.744;9.162;2022-10-16T04:02:37;96029.22;;;17.43;100.00
11198;BME280;5655;48.744;9.162;2022-10-16T04:05:03;96028.47;;;17.86;100.00
11198;BME280;5655;48.744;9.162;2022-10-16T04:07:28;96027.22;;;17.71;100.00
11198;BME280;5655;48.744;9.162;2022-10-16T04:09:54;96027.78;;;17.82;100.00
11198;BME280;5655;48.744;9.162;2022-10-16T04:12:19;96026.44;;;17.70;100.00
11198;BME280;5655;48.744;9.162;2022-10-16T04:14:44;96022.03;;;17.56;100.00
11198;BME280;5655;48.744;9.162;2022-10-16T04:17:10;96026.78;;;17.92;100.00
11198;BME280;5655;48.744;9.162;2022-10-16T04:19:35;96038.66;;;17.98;100.00
11198;BME280;5655;48.744;9.162;2022-10-16T04:22:00;96024.72;;;17.80;100.00
11198;BME280;5655;48.744;9.162;2022-10-16T04:24:26;96028.38;;;17.89;100.00
11198;BME280;5655;48.744;9.162;2022-10-16T04:26:51;96028.59;;;17.79;100.00
11198;BME280;5655;48.744;9.162;2022-10-16T04:29:16;96023.09;;;17.82;100.00
11198;BME280;5655;48.744;9.162;2022-10-16T04:31:42;96021.53;;;17.85;100.00
11198;BME280;5655;48.744;9.162;2022-10-16T04:34:07;96020.66;;;17.88;100.00
11198;BME280;5655;48.744;9.162;2022-10-16T04:36:32;96034.69;;;17.83;100.00
11198;BME280;5655;48.744;9.162;2022-10-16T04:39:00;96027.47;;;17.96;100.00
11198;BME280;5655;48.744;9.162;2022-10-16T04:41:25;96020.34;;;17.86;100.00
11198;BME280;5655;48.744;9.162;2022-10-16T04:43:50;96027.09;;;17.54;100.00
11198;BME280;5655;48.744;9.162;2022-10-16T04:46:15;96036.72;;;17.59;100.00
11198;BME280;5655;48.744;9.162;2022-10-16T04:48:41;96045.88;;;17.85;100.00
11198;BME280;5655;48.744;9.162;2022-10-16T04:51:06;96039.84;;;17.77;100.00
11198;BME280;5655;48.744;9.162;2022-10-16T04:53:31;96046.28;;;17.83;100.00
11198;BME280;5655;48.744;9.162;2022-10-16T04:55:57;96049.97;;;17.93;100.00
11198;BME280;5655;48.744;9.162;2022-10-16T04:58:22;96039.00;;;18.00;100.00
11198;BME280;5655;48.744;9.162;2022-10-16T05:00:48;96047.69;;;17.72;100.00
11198;BME280;5655;48.744;9.162;2022-10-16T05:03:13;96049.97;;;17.93;100.00
11198;BME280;5655;48.744;9.162;2022-10-16T05:05:42;96057.84;;;18.23;100.00
11198;BME280;5655;48.744;9.162;2022-10-16T05:08:09;96057.34;;;18.12;100.00
11198;BME280;5655;48.744;9.162;2022-10-16T05:10:34;96059.53;;;18.17;100.00
11198;BME280;5655;48.744;9.162;2022-10-16T05:13:00;96062.09;;;18.24;100.00
11198;BME280;5655;48.744;9.162;2022-10-16T05:15:25;96060.53;;;17.87;100.00
11198;BME280;5655;48.744;9.162;2022-10-16T05:17:54;96062.09;;;18.24;100.00
11198;BME280;5655;48.744;9.162;2022-10-16T05:20:19;96054.53;;;17.96;100.00
11198;BME280;5655;48.744;9.162;2022-10-16T05:22:44;96051.38;;;17.38;100.00
11198;BME280;5655;48.744;9.162;2022-10-16T05:25:10;96055.97;;;17.64;100.00
11198;BME280;5655;48.744;9.162;2022-10-16T05:27:35;96050.19;;;17.62;100.00
11198;BME280;5655;48.744;9.162;2022-10-16T05:30:00;96055.22;;;17.60;100.00
11198;BME280;5655;48.744;9.162;2022-10-16T05:32:25;96045.59;;;17.36;100.00
11198;BME280;5655;48.744;9.162;2022-10-16T05:34:51;96048.84;;;17.28;100.00
11198;BME280;5655;48.744;9.162;2022-10-16T05:37:16;96050.72;;;17.31;100.00
11198;BME280;5655;48.744;9.162;2022-10-16T05:39:41;96061.38;;;17.18;100.00
11198;BME280;5655;48.744;9.162;2022-10-16T05:42:07;96065.16;;;17.24;100.00
11198;BME280;5655;48.744;9.162;2022-10-16T05:44:32;96062.91;;;17.19;100.00
11198;BME280;5655;48.744;9.162;2022-10-16T05:46:58;96075.38;;;17.36;100.00
11198;BME280;5655;48.744;9.162;2022-10-16T05:49:23;96069.16;;;17.16;100.00
11198;BME280;5655;48.744;9.162;2022-10-16T05:51:48;96076.56;;;17.58;100.00
11198;BME280;5655;48.744;9.162;2022-10-16T05:54:14;96072.28;;;17.57;100.00
11198;BME280;5655;48.744;9.162;2022-10-16T05:56:39;96072.38;;;17.74;100.00
11198;BME280;5655;48.744;9.162;2022-10-16T05:59:04;96072.28;;;17.57;100.00
11198;BME280;5655;48.744;9.162;2022-10-16T06:01:30;96078.84;;;17.80;100.00
11198;BME280;5655;48.744;9.162;2022-10-16T06:03:56;96074.53;;;17.62;100.00
11198;BME280;5655;48.744;9.162;2022-10-16T06:06:23;96084.34;;;17.96;100.00
11198;BME280;5655;48.744;9.162;2022-10-16T06:08:49;96092.91;;;17.94;100.00
11198;BME280;5655;48.744;9.162;2022-10-16T06:11:19;96089.53;;;17.87;100.00
11198;BME280;5655;48.744;9.162;2022-10-16T06:13:45;96089.25;;;17.61;100.00
11198;BME280;5655;48.744;9.162;2022-10-16T06:16:11;96097.28;;;17.65;100.00
11198;BME280;5655;48.744;9.162;2022-10-16T06:18:37;96095.34;;;17.65;100.00
11198;BME280;5655;48.744;9.162;2022-10-16T06:21:11;96094.41;;;17.76;100.00
11198;BME280;5655;48.744;9.162;2022-10-16T06:23:37;96103.59;;;17.82;100.00
11198;BME280;5655;48.744;9.162;2022-10-16T06:26:06;96105.72;;;18.10;100.00
11198;BME280;5655;48.744;9.162;2022-10-16T06:28:32;96110.78;;;17.68;100.00
11198;BME280;5655;48.744;9.162;2022-10-16T06:31:01;96111.63;;;18.05;100.00
11198;BME280;5655;48.744;9.162;2022-10-16T06:33:27;96105.16;;;17.79;100.00
11198;BME280;5655;48.744;9.162;2022-10-16T06:35:53;96104.41;;;17.79;100.00
11198;BME280;5655;48.744;9.162;2022-10-16T06:38:18;96098.66;;;17.77;100.00
11198;BME280;5655;48.744;9.162;2022-10-16T06:40:43;96102.75;;;17.85;100.00
11198;BME280;5655;48.744;9.162;2022-10-16T06:43:09;96107.31;;;17.88;100.00
11198;BME280;5655;48.744;9.162;2022-10-16T06:45:34;96115.28;;;17.95;100.00
11198;BME280;5655;48.744;9.162;2022-10-16T06:47:59;96111.84;;;17.94;100.00
11198;BME280;5655;48.744;9.162;2022-10-16T06:50:25;96121.69;;;18.04;100.00
11198;BME280;5655;48.744;9.162;2022-10-16T06:52:50;96121.44;;;17.99;100.00
11198;BME280;5655;48.744;9.162;2022-10-16T06:55:15;96128.34;;;17.80;100.00
11198;BME280;5655;48.744;9.162;2022-10-16T06:57:42;96127.59;;;18.19;100.00
11198;BME280;5655;48.744;9.162;2022-10-16T07:00:08;96134.41;;;18.27;100.00
11198;BME280;5655;48.744;9.162;2022-10-16T07:02:36;96135.38;;;18.17;100.00
11198;BME280;5655;48.744;9.162;2022-10-16T07:05:02;96137.47;;;18.29;100.00
11198;BME280;5655;48.744;9.162;2022-10-16T07:07:28;96144.97;;;18.41;100.00
11198;BME280;5655;48.744;9.162;2022-10-16T07:09:53;96139.47;;;18.25;100.00
11198;BME280;5655;48.744;9.162;2022-10-16T07:12:18;96149.81;;;18.30;100.00
11198;BME280;5655;48.744;9.162;2022-10-16T07:14:43;96149.13;;;18.26;100.00
11198;BME280;5655;48.744;9.162;2022-10-16T07:17:09;96159.19;;;18.26;100.00
11198;BME280;5655;48.744;9.162;2022-10-16T07:19:34;96171.50;;;18.30;100.00
11198;BME280;5655;48.744;9.162;2022-10-16T07:22:00;96166.91;;;18.27;100.00
11198;BME280;5655;48.744;9.162;2022-10-16T07:24:25;96170.94;;;18.19;100.00
11198;BME280;5655;48.744;9.162;2022-10-16T07:26:51;96179.63;;;18.30;100.00
11198;BME280;5655;48.744;9.162;2022-10-16T07:29:20;96185.81;;;18.50;100.00
11198;BME280;5655;48.744;9.162;2022-10-16T07:31:47;96183.03;;;18.14;100.00
11198;BME280;5655;48.744;9.162;2022-10-16T07:34:14;96190.56;;;18.46;100.00
11198;BME280;5655;48.744;9.162;2022-10-16T07:36:40;96189.00;;;18.26;100.00
11198;BME280;5655;48.744;9.162;2022-10-16T07:39:05;96184.72;;;18.28;100.00
11198;BME280;5655;48.744;9.162;2022-10-16T07:41:31;96185.75;;;18.34;100.00
11198;BME280;5655;48.744;9.162;2022-10-16T07:43:58;96192.41;;;18.69;100.00
11198;BME280;5655;48.744;9.162;2022-10-16T07:46:26;96185.19;;;18.43;100.00
11198;BME280;5655;48.744;9.162;2022-10-16T07:48:52;96194.88;;;18.64;100.00
11198;BME280;5655;48.744;9.162;2022-10-16T07:51:19;96198.47;;;18.77;100.00
11198;BME280;5655;48.744;9.162;2022-10-16T07:53:46;96199.75;;;18.52;100.00
11198;BME280;5655;48.744;9.162;2022-10-16T07:56:12;96201.47;;;18.63;100.00
11198;BME280;5655;48.744;9.162;2022-10-16T07:58:38;96208.31;;;18.87;100.00
11198;BME280;5655;48.744;9.162;2022-10-16T08:01:06;96208.59;;;18.73;100.00
11198;BME280;5655;48.744;9.162;2022-10-16T08:03:32;96212.16;;;18.70;100.00
11198;BME280;5655;48.744;9.162;2022-10-16T08:05:58;96216.75;;;18.73;100.00
11198;BME280;5655;48.744;9.162;2022-10-16T08:08:24;96222.06;;;18.96;100.00
11198;BME280;5655;48.744;9.162;2022-10-16T08:10:49;96218.88;;;19.01;100.00
11198;BME280;5655;48.744;9.162;2022-10-16T08:13:15;96219.47;;;18.73;100.00
11198;BME280;5655;48.744;9.162;2022-10-16T08:15:41;96222.00;;;18.99;100.00
11198;BME280;5655;48.744;9.162;2022-10-16T08:18:07;96213.75;;;18.87;100.00
11198;BME280;5655;48.744;9.162;2022-10-16T08:20:33;96210.31;;;19.02;100.00
11198;BME280;5655;48.744;9.162;2022-10-16T08:22:59;96219.06;;;19.10;100.00
11198;BME280;5655;48.744;9.162;2022-10-16T08:25:25;96220.06;;;19.00;100.00
11198;BME280;5655;48.744;9.162;2022-10-16T08:27:51;96234.75;;;19.02;100.00
11198;BME280;5655;48.744;9.162;2022-10-16T08:30:18;96224.81;;;19.12;100.00
11198;BME280;5655;48.744;9.162;2022-10-16T08:32:44;96237.03;;;19.56;100.00
11198;BME280;5655;48.744;9.162;2022-10-16T08:35:11;96246.19;;;19.62;100.00
11198;BME280;5655;48.744;9.162;2022-10-16T08:37:37;96239.25;;;19.25;100.00
11198;BME280;5655;48.744;9.162;2022-10-16T08:40:04;96249.50;;;19.54;100.00
11198;BME280;5655;48.744;9.162;2022-10-16T08:48:27;96263.25;;;19.63;100.00
11198;BME280;5655;48.744;9.162;2022-10-16T08:50:55;96251.53;;;19.66;100.00
11198;BME280;5655;48.744;9.162;2022-10-16T08:53:30;96254.44;;;19.75;100.00
11198;BME280;5655;48.744;9.162;2022-10-16T08:55:56;96265.28;;;19.91;100.00
11198;BME280;5655;48.744;9.162;2022-10-16T08:58:27;96254.94;;;19.86;100.00
11198;BME280;5655;48.744;9.162;2022-10-16T09:00:58;96265.47;;;19.84;100.00
11198;BME280;5655;48.744;9.162;2022-10-16T09:03:48;96275.97;;;20.30;100.00
11198;BME280;5655;48.744;9.162;2022-10-16T09:16:44;96251.66;;;20.23;100.00
11198;BME280;5655;48.744;9.162;2022-10-16T09:19:41;96252.69;;;20.29;100.00
11198;BME280;5655;48.744;9.162;2022-10-16T09:22:16;96266.56;;;20.48;100.00
11198;BME280;5655;48.744;9.162;2022-10-16T09:24:42;96280.59;;;20.46;100.00
11198;BME280;5655;48.744;9.162;2022-10-16T09:27:12;96291.56;;;20.71;100.00
11198;BME280;5655;48.744;9.162;2022-10-16T09:29:39;96285.72;;;20.44;100.00
11198;BME280;5655;48.744;9.162;2022-10-16T09:32:13;96285.03;;;20.69;100.00
11198;BME280;5655;48.744;9.162;2022-10-16T09:34:42;96292.81;;;20.83;100.00
11198;BME280;5655;48.744;9.162;2022-10-16T09:37:12;96311.66;;;21.32;100.00
11198;BME280;5655;48.744;9.162;2022-10-16T09:39:47;96325.22;;;21.98;100.00
11198;BME280;5655;48.744;9.162;2022-10-16T09:42:20;96335.22;;;22.01;100.00
11198;BME280;5655;48.744;9.162;2022-10-16T09:44:49;96315.81;;;21.49;100.00
11198;BME280;5655;48.744;9.162;2022-10-16T09:47:21;96317.25;;;21.79;100.00
11198;BME280;5655;48.744;9.162;2022-10-16T09:49:58;96331.34;;;22.37;100.00
11198;BME280;5655;48.744;9.162;2022-10-16T09:52:27;96338.66;;;22.40;100.00
11198;BME280;5655;48.744;9.162;2022-10-16T09:54:56;96352.66;;;22.76;100.00
11198;BME280;5655;48.744;9.162;2022-10-16T09:57:22;96344.22;;;22.83;100.00
11198;BME280;5655;48.744;9.162;2022-10-16T09:59:52;96347.72;;;22.37;100.00
11198;BME280;5655;48.744;9.162;2022-10-16T10:02:30;96335.44;;;22.20;100.00
11198;BME280;5655;48.744;9.162;2022-10-16T10:04:56;96344.53;;;22.51;100.00
11198;BME280;5655;48.744;9.162;2022-10-16T10:07:26;96357.69;;;22.99;100.00
11198;BME280;5655;48.744;9.162;2022-10-16T10:09:53;96371.50;;;22.83;100.00
11198;BME280;5655;48.744;9.162;2022-10-16T10:12:25;96363.25;;;22.96;100.00
11198;BME280;5655;48.744;9.162;2022-10-16T10:14:52;96363.00;;;22.81;100.00
11198;BME280;5655;48.744;9.162;2022-10-16T10:17:28;96370.75;;;23.04;100.00
11198;BME280;5655;48.744;9.162;2022-10-16T10:20:13;96375.22;;;22.89;100.00
11198;BME280;5655;48.744;9.162;2022-10-16T10:22:44;96371.22;;;23.03;100.00
11198;BME280;5655;48.744;9.162;2022-10-16T10:30:49;96361.06;;;23.47;100.00
11198;BME280;5655;48.744;9.162;2022-10-16T10:39:06;96357.75;;;23.52;100.00
11198;BME280;5655;48.744;9.162;2022-10-16T10:47:35;96366.25;;;24.16;100.00
11198;BME280;5655;48.744;9.162;2022-10-16T10:58:29;96369.91;;;25.77;100.00
11198;BME280;5655;48.744;9.162;2022-10-16T11:01:09;96367.13;;;25.86;100.00
11198;BME280;5655;48.744;9.162;2022-10-16T11:03:42;96370.47;;;25.90;100.00
11198;BME280;5655;48.744;9.162;2022-10-16T11:06:18;96371.78;;;26.36;100.00
11198;BME280;5655;48.744;9.162;2022-10-16T11:11:43;96369.69;;;26.79;100.00
11198;BME280;5655;48.744;9.162;2022-10-16T11:14:14;96365.13;;;26.76;100.00
11198;BME280;5655;48.744;9.162;2022-10-16T11:16:48;96366.25;;;26.69;100.00
11198;BME280;5655;48.744;9.162;2022-10-16T11:19:41;96358.94;;;26.42;100.00
11198;BME280;5655;48.744;9.162;2022-10-16T11:22:31;96360.13;;;26.27;100.00
11198;BME280;5655;48.744;9.162;2022-10-16T11:30:25;96364.75;;;25.69;100.00
11198;BME280;5655;48.744;9.162;2022-10-16T11:35:36;96368.53;;;26.14;100.00
11198;BME280;5655;48.744;9.162;2022-10-16T11:38:03;96362.22;;;25.90;100.00
11198;BME280;5655;48.744;9.162;2022-10-16T11:40:38;96358.88;;;26.75;100.00
11198;BME280;5655;48.744;9.162;2022-10-16T11:43:37;96355.38;;;26.98;100.00
11198;BME280;5655;48.744;9.162;2022-10-16T11:46:10;96355.03;;;26.58;100.00
11198;BME280;5655;48.744;9.162;2022-10-16T11:48:58;96359.34;;;26.97;100.00
11198;BME280;5655;48.744;9.162;2022-10-16T11:51:35;96358.22;;;27.04;100.00
11198;BME280;5655;48.744;9.162;2022-10-16T11:56:37;96348.34;;;26.35;100.00
11198;BME280;5655;48.744;9.162;2022-10-16T12:01:45;96349.44;;;27.29;100.00
11198;BME280;5655;48.744;9.162;2022-10-16T12:04:36;96342.13;;;27.41;100.00
11198;BME280;5655;48.744;9.162;2022-10-16T12:07:14;96344.78;;;27.94;100.00
11198;BME280;5655;48.744;9.162;2022-10-16T12:09:41;96348.56;;;27.23;100.00
11198;BME280;5655;48.744;9.162;2022-10-16T12:12:37;96347.47;;;28.43;100.00
11198;BME280;5655;48.744;9.162;2022-10-16T12:15:29;96346.78;;;28.28;100.00
11198;BME280;5655;48.744;9.162;2022-10-16T12:17:56;96341.28;;;28.49;100.00
11198;BME280;5655;48.744;9.162;2022-10-16T12:20:32;96345.22;;;28.62;100.00
11198;BME280;5655;48.744;9.162;2022-10-16T12:23:03;96343.78;;;28.47;100.00
11198;BME280;5655;48.744;9.162;2022-10-16T12:25:35;96349.44;;;28.37;100.00
11198;BME280;5655;48.744;9.162;2022-10-16T12:30:41;96351.63;;;28.54;100.00
11198;BME280;5655;48.744;9.162;2022-10-16T12:33:21;96348.59;;;28.92;100.00
11198;BME280;5655;48.744;9.162;2022-10-16T12:35:47;96354.94;;;28.58;100.00
11198;BME280;5655;48.744;9.162;2022-10-16T12:41:06;96352.34;;;27.99;100.00
11198;BME280;5655;48.744;9.162;2022-10-16T12:43:41;96351.13;;;28.35;100.00
11198;BME280;5655;48.744;9.162;2022-10-16T12:48:37;96351.88;;;28.35;100.00
11198;BME280;5655;48.744;9.162;2022-10-16T12:51:25;96355.97;;;27.46;100.00
11198;BME280;5655;48.744;9.162;2022-10-16T12:54:19;96354.63;;;27.27;100.00
11198;BME280;5655;48.744;9.162;2022-10-16T13:04:51;96372.22;;;26.68;100.00
11198;BME280;5655;48.744;9.162;2022-10-16T13:18:42;96375.25;;;26.13;100.00
11198;BME280;5655;48.744;9.162;2022-10-16T13:23:38;96379.88;;;25.98;100.00
11198;BME280;5655;48.744;9.162;2022-10-16T13:26:14;96378.22;;;26.00;100.00
11198;BME280;5655;48.744;9.162;2022-10-16T13:28:42;96379.56;;;26.05;100.00
11198;BME280;5655;48.744;9.162;2022-10-16T13:31:22;96383.09;;;25.96;100.00
11198;BME280;5655;48.744;9.162;2022-10-16T13:33:54;96373.47;;;26.01;100.00
11198;BME280;5655;48.744;9.162;2022-10-16T13:36:28;96370.78;;;25.92;100.00
11198;BME280;5655;48.744;9.162;2022-10-16T13:39:26;96378.34;;;26.06;100.00
11198;BME280;5655;48.744;9.162;2022-10-16T13:42:25;96388.09;;;25.98;100.00
11198;BME280;5655;48.744;9.162;2022-10-16T13:44:53;96380.41;;;25.78;100.00
11198;BME280;5655;48.744;9.162;2022-10-16T13:47:26;96377.31;;;25.94;100.00
11198;BME280;5655;48.744;9.162;2022-10-16T13:50:04;96373.81;;;25.94;100.00
11198;BME280;5655;48.744;9.162;2022-10-16T13:52:30;96378.44;;;25.79;100.00
11198;BME280;5655;48.744;9.162;2022-10-16T13:54:55;96372.97;;;25.69;100.00
11198;BME280;5655;48.744;9.162;2022-10-16T13:57:23;96369.41;;;25.87;100.00
11198;BME280;5655;48.744;9.162;2022-10-16T13:59:49;96373.44;;;25.68;100.00
11198;BME280;5655;48.744;9.162;2022-10-16T14:02:34;96370.59;;;25.26;100.00
11198;BME280;5655;48.744;9.162;2022-10-16T14:05:02;96373.59;;;25.64;100.00
11198;BME280;5655;48.744;9.162;2022-10-16T14:07:31;96373.94;;;25.48;100.00
11198;BME280;5655;48.744;9.162;2022-10-16T14:10:02;96374.84;;;25.45;100.00
11198;BME280;5655;48.744;9.162;2022-10-16T14:12:28;96369.84;;;25.25;100.00
11198;BME280;5655;48.744;9.162;2022-10-16T14:14:54;96371.34;;;25.45;100.00
11198;BME280;5655;48.744;9.162;2022-10-16T14:17:34;96372.84;;;25.46;100.00
11198;BME280;5655;48.744;9.162;2022-10-16T14:20:04;96374.22;;;25.50;100.00
11198;BME280;5655;48.744;9.162;2022-10-16T14:24:55;96378.06;;;25.16;100.00
11198;BME280;5655;48.744;9.162;2022-10-16T14:27:35;96384.03;;;25.24;100.00
11198;BME280;5655;48.744;9.162;2022-10-16T14:32:32;96388.28;;;25.07;100.00
11198;BME280;5655;48.744;9.162;2022-10-16T14:34:57;96378.53;;;24.88;100.00
11198;BME280;5655;48.744;9.162;2022-10-16T14:37:31;96386.13;;;25.20;100.00
11198;BME280;5655;48.744;9.162;2022-10-16T14:39:57;96379.44;;;25.21;100.00
11198;BME280;5655;48.744;9.162;2022-10-16T14:42:24;96383.38;;;25.29;100.00
11198;BME280;5655;48.744;9.162;2022-10-16T14:44:53;96387.38;;;24.92;100.00
11198;BME280;5655;48.744;9.162;2022-10-16T14:47:23;96384.03;;;24.97;100.00
11198;BME280;5655;48.744;9.162;2022-10-16T14:49:52;96385.84;;;24.91;100.00
11198;BME280;5655;48.744;9.162;2022-10-16T14:52:19;96387.97;;;25.05;100.00
11198;BME280;5655;48.744;9.162;2022-10-16T14:54:48;96390.41;;;25.03;100.00
11198;BME280;5655;48.744;9.162;2022-10-16T14:57:24;96399.84;;;24.93;100.00